• Join FlightAware (Why Join?)
  • Login
  • US Flag 
07:37AM EST


 

Airport Tracker/Info


-or-


 

Live Flight TrackerFlight Track Log ✈ UAL3272 ✈ 05-Apr-2013 ✈ CYYZ - KCLE

Flight Track Log - Related Links

Times and Time Zones

All times are in EDT time to prevent confusion due to time zone crossing. See the UAL3272 flight status page for this flight to view local times or setup timezone preferences in your user account.

Time Position Orientation Groundspeed Altitude Reporting Facility
EDT Latitude Longitude Course Direction KTS MPH feet Rate Location/Type
06:57AM 43.6333 -79.6333 216° Southwest 170 196 2,400  Level Toronto Center
06:58AM 43.5833 -79.6833 216° Southwest 240 276 5,400 2,280 Climbing Toronto Center
06:59AM 43.5000 -79.7000 188° South 280 322 7,000 1,380 Climbing Toronto Center
07:00AM 43.4167 -79.7000 180° South 270 311 8,200 2,100 Climbing Toronto Center
07:01AM 43.3500 -79.7000 180° South 280 322 11,300 2,640 Climbing Toronto Center
07:02AM 43.2667 -79.7167 188° South 300 345 13,500 2,100 Climbing Toronto Center
07:03AM 43.1667 -79.7167 180° South 330 380 15,500 1,920 Climbing Toronto Center
07:04AM 43.0833 -79.7167 180° South 340 391 17,400 1,200 Climbing Toronto Center
07:05AM 42.9833 -79.7500 194° South 350 403 18,000 300 Climbing Toronto Center
07:06AM 42.9000 -79.8000 204° Southwest 350 403 18,000  Level Toronto Center
07:07AM 42.8000 -79.8333 194° South 350 403 18,000  Level Toronto Center
07:08AM 42.7353 -79.8992 217° Southwest 357 411 18,000  Level Cleveland Center
07:09AM 42.6461 -79.9508 203° Southwest 351 404 18,000  Level Cleveland Center
07:10AM 42.5506 -80.0025 202° Southwest 364 419 18,000  Level Cleveland Center
07:11AM 42.4589 -80.0542 203° Southwest 369 425 18,000  Level Cleveland Center
07:12AM 42.3864 -80.1333 219° Southwest 351 404 18,000  Level Cleveland Center
07:13AM 42.3136 -80.2208 222° Southwest 351 404 18,000  Level Cleveland Center
07:14AM 42.2411 -80.3083 222° Southwest 351 404 18,000  Level Cleveland Center
07:15AM 42.1725 -80.3928 222° Southwest 351 404 18,000  Level Cleveland Center
07:16AM 42.0994 -80.4797 221° Southwest 351 404 18,000  Level Cleveland Center
07:17AM 42.0289 -80.5636 221° Southwest 351 404 18,000  Level Cleveland Center
07:18AM 41.9642 -80.6419 222° Southwest 351 404 18,000  Level Cleveland Center
07:19AM 41.8889 -80.7281 220° Southwest 351 404 18,000 -300 Level Cleveland Center
07:20AM 41.8158 -80.8117 220° Southwest 351 404 17,500 -1,260 Descending Cleveland Center
07:21AM 41.7469 -80.8919 221° Southwest 351 404 15,500 -2,040 Descending Cleveland Center
07:22AM 41.6778 -80.9778 223° Southwest 345 397 13,500 -2,160 Descending Cleveland Center
07:22AM 41.6422 -81.0167 219° Southwest 328 377 12,400 -2,280 Descending Cleveland Center
07:23AM 41.6172 -81.0469 222° Southwest 322 371 11,600 -1,740 Descending Cleveland Center
07:24AM 41.5544 -81.1186 221° Southwest 287 330 10,000 -780 Descending Cleveland Center
07:25AM 41.5058 -81.2125 235° Southwest 281 323 10,000  Level Cleveland Center
07:26AM 41.4969 -81.3067 263° West 250 288 10,000  Level Cleveland Center
07:27AM 41.4839 -81.3953 259° West 247 284 10,000  Level Cleveland Center
07:27AM 41.4839 -81.3953 259° West 248 285 10,000  Level Cleveland Center
07:28AM 41.4708 -81.4864 259° West 253 291 10,000 -240 Level Cleveland Center
07:29AM 41.4617 -81.5722 262° West 253 291 9,600 -900 Descending Cleveland Center
07:30AM 41.4506 -81.6525 260° West 235 270 8,200 -1,320 Descending Cleveland Center
07:31AM 41.4103 -81.7239 233° Southwest 230 265 7,000 -900 Descending Cleveland Center
07:32AM 41.3553 -81.8031 227° Southwest 235 270 6,300 -1,260 Descending Cleveland Center
07:33AM 41.3128 -81.8658 228° Southwest 232 267 4,300 -1,560 Descending Cleveland Center
07:34AM 41.3014 -81.9403 259° West 199 229 3,000 -780 Descending Cleveland Center
07:35AM 41.3367 -81.9603 337° Northwest 138 159 2,800 -600 Descending Cleveland Center
07:36AM 41.3622 -81.9303 41° Northeast 122 140 1,900 -840 Descending Cleveland Center
07:37AM 41.3875 -81.8978 44° Northeast 127 146 1,200 -720 Descending Cleveland Center